createdAt,value
2022-08-16T00:00:48.752Z,77.36
2022-08-16T00:03:40.911Z,77.44
2022-08-16T00:06:29.968Z,78.18
2022-08-16T00:09:19.945Z,78.65
2022-08-16T00:12:08.672Z,78.93
2022-08-16T00:14:58.069Z,78.51
2022-08-16T00:17:56.246Z,78.37
2022-08-16T00:20:46.515Z,78.48
2022-08-16T00:23:46.121Z,78.43
2022-08-16T00:26:43.945Z,78.26
2022-08-16T00:29:33.953Z,78.13
2022-08-16T00:32:22.970Z,78.28
2022-08-16T00:35:15.518Z,78.35
2022-08-16T00:38:41.045Z,78.71
2022-08-16T00:41:13.975Z,78.89
2022-08-16T00:44:11.131Z,79.11
2022-08-16T00:47:06.509Z,79.37
2022-08-16T00:49:56.274Z,80.00
2022-08-16T00:52:50.458Z,80.37
2022-08-16T00:55:43.114Z,80.82
2022-08-16T00:58:35.076Z,81.25
2022-08-16T01:01:25.263Z,81.61
2022-08-16T01:04:25.744Z,82.07
2022-08-16T01:07:19.251Z,82.74
2022-08-16T01:10:16.414Z,83.55
2022-08-16T01:13:08.444Z,83.92
2022-08-16T01:16:03.116Z,84.26
2022-08-16T01:18:56.549Z,85.13
2022-08-16T01:21:51.635Z,85.64
2022-08-16T01:24:54.049Z,85.88
2022-08-16T01:27:47.690Z,85.98
2022-08-16T01:30:39.746Z,85.83
2022-08-16T01:33:33.276Z,86.23
2022-08-16T01:36:22.191Z,86.12
2022-08-16T01:39:17.767Z,86.27
2022-08-16T01:42:13.060Z,86.77
2022-08-16T01:45:01.864Z,86.58
2022-08-16T01:47:52.575Z,86.79
2022-08-16T01:51:08.140Z,87.68
2022-08-16T01:53:54.461Z,87.83
2022-08-16T01:56:44.301Z,87.65
2022-08-16T01:59:35.786Z,87.85
2022-08-16T02:02:27.346Z,88.55
2022-08-16T02:05:17.227Z,89.10
2022-08-16T02:08:07.371Z,88.91
2022-08-16T02:11:16.389Z,89.53
2022-08-16T02:14:05.695Z,89.98
2022-08-16T02:17:11.890Z,90.35
2022-08-16T02:20:00.933Z,90.72
2022-08-16T02:22:49.623Z,91.75
2022-08-16T02:25:52.391Z,92.33
2022-08-16T02:28:45.333Z,92.54
2022-08-16T02:32:03.896Z,92.51
2022-08-16T02:34:45.966Z,92.69
2022-08-16T02:37:51.637Z,92.54
2022-08-16T02:40:42.250Z,92.63
2022-08-16T02:43:34.229Z,92.53
2022-08-16T02:46:30.182Z,92.92
2022-08-16T02:49:22.241Z,93.77
2022-08-16T02:52:32.184Z,94.06
2022-08-16T02:55:40.973Z,93.98
2022-08-16T02:58:32.529Z,94.84
2022-08-16T03:01:25.115Z,95.48
2022-08-16T03:04:41.645Z,94.48
2022-08-16T03:07:36.958Z,95.42
2022-08-16T03:10:33.663Z,96.25
2022-08-16T03:13:23.776Z,96.37
2022-08-16T03:16:32.874Z,96.21
2022-08-16T03:19:21.764Z,95.79
2022-08-16T03:22:10.772Z,96.29
2022-08-16T03:25:02.755Z,96.50
2022-08-16T03:27:52.053Z,97.00
2022-08-16T03:30:40.621Z,97.83
2022-08-16T03:33:29.862Z,98.73
2022-08-16T03:36:30.153Z,98.44
2022-08-16T03:39:20.467Z,98.65
2022-08-16T03:42:10.584Z,98.29
2022-08-16T03:45:03.977Z,98.47
2022-08-16T03:47:59.882Z,99.66
2022-08-16T03:51:00.176Z,99.97
2022-08-16T03:54:00.879Z,100.00
2022-08-16T03:56:56.678Z,99.47
2022-08-16T03:59:48.066Z,99.75
2022-08-16T04:02:40.279Z,100.00
2022-08-16T04:05:29.000Z,100.00
2022-08-16T04:08:23.164Z,100.00
2022-08-16T04:11:16.391Z,100.00
2022-08-16T04:14:32.443Z,100.00
2022-08-16T04:17:16.021Z,100.00
2022-08-16T04:20:23.208Z,100.00
2022-08-16T04:23:16.640Z,100.00
2022-08-16T04:26:06.051Z,100.00
2022-08-16T04:29:14.559Z,100.00
2022-08-16T04:32:03.172Z,99.70
2022-08-16T04:34:53.137Z,99.88
2022-08-16T04:37:42.613Z,100.00
2022-08-16T04:40:31.292Z,100.00
2022-08-16T04:43:20.602Z,100.00
2022-08-16T04:46:33.216Z,100.00
2022-08-16T04:49:17.829Z,100.00
2022-08-16T04:52:33.719Z,100.00
2022-08-16T04:55:20.168Z,100.00
2022-08-16T04:58:45.844Z,100.00
2022-08-16T05:01:18.652Z,100.00
2022-08-16T05:04:19.661Z,99.08
2022-08-16T05:07:15.020Z,99.22
2022-08-16T05:10:19.517Z,99.04
2022-08-16T05:13:15.745Z,98.71
2022-08-16T05:16:04.926Z,98.82
2022-08-16T05:18:56.882Z,98.86
2022-08-16T05:21:47.201Z,99.04
2022-08-16T05:24:37.262Z,99.04
2022-08-16T05:27:26.343Z,98.89
2022-08-16T05:30:36.793Z,98.28
2022-08-16T05:33:25.780Z,98.17
2022-08-16T05:36:15.827Z,98.01
2022-08-16T05:39:10.058Z,97.75
2022-08-16T05:41:59.963Z,97.51
2022-08-16T05:44:49.331Z,96.32
2022-08-16T05:47:43.290Z,95.82
2022-08-16T05:50:34.502Z,95.47
2022-08-16T05:53:24.394Z,95.67
2022-08-16T05:56:19.274Z,95.61
2022-08-16T05:59:09.386Z,95.10
2022-08-16T06:01:59.640Z,94.53
2022-08-16T06:04:48.295Z,93.82
2022-08-16T06:07:37.406Z,92.69
2022-08-16T06:10:33.082Z,92.19
2022-08-16T06:13:22.160Z,90.85
2022-08-16T06:16:17.911Z,90.10
2022-08-16T06:19:07.358Z,90.12
2022-08-16T06:21:57.548Z,89.74
2022-08-16T06:24:53.620Z,89.13
2022-08-16T06:27:57.107Z,89.18
2022-08-16T06:30:47.751Z,88.43
2022-08-16T06:33:41.741Z,86.84
2022-08-16T06:36:32.193Z,84.20
2022-08-16T06:39:21.109Z,81.83
2022-08-16T06:42:09.699Z,81.03
2022-08-16T06:44:58.235Z,80.15
2022-08-16T06:47:53.590Z,79.32
2022-08-16T06:50:48.114Z,76.51
2022-08-16T06:53:37.029Z,75.75
2022-08-16T06:56:25.680Z,73.84
2022-08-16T06:59:14.561Z,72.69
2022-08-16T07:02:03.579Z,72.24
2022-08-16T07:04:53.126Z,71.02
2022-08-16T07:07:44.507Z,70.27
2022-08-16T07:10:33.116Z,69.98
2022-08-16T07:13:58.545Z,69.17
2022-08-16T07:16:30.462Z,68.60
2022-08-16T07:19:20.116Z,67.68
2022-08-16T07:22:38.410Z,67.01
2022-08-16T07:25:18.651Z,67.29
2022-08-16T07:28:07.233Z,66.50
2022-08-16T07:31:03.082Z,64.19
2022-08-16T07:33:54.999Z,63.46
2022-08-16T07:36:45.231Z,62.12
2022-08-16T07:39:45.757Z,60.95
2022-08-16T07:42:36.315Z,60.00
2022-08-16T07:45:25.157Z,59.32
2022-08-16T07:48:14.128Z,58.56
2022-08-16T07:51:06.519Z,57.10
2022-08-16T07:54:09.009Z,57.10
2022-08-16T07:56:58.312Z,56.80
2022-08-16T07:59:48.264Z,55.80
2022-08-16T08:02:38.660Z,55.04
2022-08-16T08:05:35.669Z,54.62
2022-08-16T08:08:49.240Z,54.89
2022-08-16T08:11:35.107Z,55.26
2022-08-16T08:14:30.083Z,54.81
2022-08-16T08:17:20.375Z,54.36
2022-08-16T08:20:11.412Z,53.16
2022-08-16T08:23:01.543Z,53.51
2022-08-16T08:25:53.419Z,53.46
2022-08-16T08:28:43.369Z,53.06
2022-08-16T08:31:32.025Z,52.44
2022-08-16T08:34:24.928Z,52.21
2022-08-16T08:37:13.514Z,51.75
2022-08-16T08:40:02.534Z,51.47
2022-08-16T08:42:52.154Z,51.72
2022-08-16T08:45:49.326Z,51.67
2022-08-16T08:48:43.864Z,51.38
2022-08-16T08:51:36.951Z,50.06
2022-08-16T08:54:26.290Z,50.46
2022-08-16T08:57:18.559Z,50.29
2022-08-16T09:00:14.189Z,49.78
2022-08-16T09:03:04.365Z,48.87
2022-08-16T09:05:53.286Z,48.73
2022-08-16T09:08:47.308Z,49.53
2022-08-16T09:11:40.979Z,49.19
2022-08-16T09:14:31.031Z,48.56
2022-08-16T09:17:45.567Z,47.24
2022-08-16T09:20:29.276Z,47.54
2022-08-16T09:23:18.366Z,47.46
2022-08-16T09:26:44.693Z,47.23
2022-08-16T09:29:38.368Z,46.81
2022-08-16T09:32:30.622Z,48.15
2022-08-16T09:35:19.966Z,47.84
2022-08-16T09:38:09.788Z,48.85
2022-08-16T09:41:01.027Z,49.14
2022-08-16T09:43:58.216Z,49.88
2022-08-16T09:46:49.944Z,49.60
2022-08-16T09:49:41.125Z,50.14
2022-08-16T09:52:29.938Z,49.77
2022-08-16T09:55:19.294Z,48.78
2022-08-16T09:58:10.630Z,47.73
2022-08-16T10:01:01.207Z,46.29
2022-08-16T10:04:02.084Z,46.05
2022-08-16T10:06:52.075Z,45.14
2022-08-16T10:09:44.998Z,45.14
2022-08-16T10:13:01.218Z,44.62
2022-08-16T10:15:55.488Z,44.46
2022-08-16T10:19:06.229Z,44.07
2022-08-16T10:21:56.542Z,45.46
2022-08-16T10:24:55.613Z,46.82
2022-08-16T10:27:53.335Z,46.08
2022-08-16T10:30:45.732Z,44.48
2022-08-16T10:33:35.134Z,44.58
2022-08-16T10:36:38.102Z,43.34
2022-08-16T10:39:40.808Z,44.32
2022-08-16T10:42:30.813Z,44.64
2022-08-16T10:45:19.894Z,44.48
2022-08-16T10:48:27.180Z,44.37
2022-08-16T10:51:17.191Z,42.85
2022-08-16T10:54:29.424Z,43.23
2022-08-16T10:57:17.513Z,42.51
2022-08-16T11:00:20.805Z,42.46
2022-08-16T11:06:26.625Z,42.32
2022-08-16T11:09:25.607Z,42.78
2022-08-16T11:12:17.395Z,41.63
2022-08-16T11:15:17.185Z,42.01
2022-08-16T11:19:03.741Z,42.04
2022-08-16T11:21:28.828Z,40.78
2022-08-16T11:24:41.891Z,40.96
2022-08-16T11:27:32.683Z,40.65
2022-08-16T11:30:28.394Z,39.83
2022-08-16T11:36:37.121Z,38.47
2022-08-16T11:39:27.215Z,39.04
2022-08-16T11:42:28.690Z,37.50
2022-08-16T11:45:19.910Z,38.15
2022-08-16T11:48:12.284Z,37.76
2022-08-16T11:51:01.784Z,37.93
2022-08-16T11:53:50.476Z,37.77
2022-08-16T11:56:53.243Z,37.67
2022-08-16T11:59:46.308Z,38.85
2022-08-16T12:02:38.151Z,39.33
2022-08-16T12:05:35.592Z,39.36
2022-08-16T12:08:26.101Z,39.01
2022-08-16T12:11:16.636Z,37.56
2022-08-16T12:14:08.012Z,37.01
2022-08-16T12:16:57.093Z,37.14
2022-08-16T12:19:46.069Z,36.90
2022-08-16T12:22:36.731Z,36.95
2022-08-16T12:25:27.229Z,36.79
2022-08-16T12:28:16.742Z,36.18
2022-08-16T12:31:26.781Z,36.42
2022-08-16T12:34:19.664Z,35.64
2022-08-16T12:37:18.833Z,35.10
2022-08-16T12:40:23.829Z,34.83
2022-08-16T12:43:14.801Z,34.71
2022-08-16T12:46:03.811Z,34.35
2022-08-16T12:48:58.430Z,34.91
2022-08-16T12:51:59.304Z,35.97
2022-08-16T12:54:54.880Z,36.49
2022-08-16T12:57:44.422Z,34.80
2022-08-16T13:00:48.421Z,34.96
2022-08-16T13:03:40.643Z,35.49
2022-08-16T13:06:33.474Z,36.11
2022-08-16T13:09:26.832Z,36.29
2022-08-16T13:12:20.064Z,36.42
2022-08-16T13:15:12.375Z,36.42
2022-08-16T13:18:01.068Z,36.41
2022-08-16T13:20:59.787Z,35.97
2022-08-16T13:23:49.742Z,35.47
2022-08-16T13:26:39.844Z,35.43
2022-08-16T13:29:40.023Z,34.30
2022-08-16T13:32:40.042Z,34.15
2022-08-16T13:35:33.020Z,34.72
2022-08-16T13:38:24.993Z,34.67
2022-08-16T13:41:15.668Z,34.42
2022-08-16T13:44:09.509Z,34.77
2022-08-16T13:46:59.551Z,34.32
2022-08-16T13:49:48.512Z,34.11
2022-08-16T13:52:39.774Z,34.23
2022-08-16T13:55:29.242Z,33.93
2022-08-16T13:58:37.471Z,34.02
2022-08-16T14:01:30.016Z,34.29
2022-08-16T14:04:26.481Z,34.56
2022-08-16T14:07:19.929Z,34.77
2022-08-16T14:10:15.293Z,34.59
2022-08-16T14:13:04.043Z,34.85
2022-08-16T14:15:56.139Z,34.86
2022-08-16T14:18:44.791Z,34.81
2022-08-16T14:21:35.907Z,34.88
2022-08-16T14:24:30.299Z,34.77
2022-08-16T14:27:21.288Z,34.83
2022-08-16T14:30:15.366Z,35.26
2022-08-16T14:33:05.852Z,34.29
2022-08-16T14:35:55.362Z,34.90
2022-08-16T14:38:44.017Z,35.38
2022-08-16T14:41:32.872Z,35.15
2022-08-16T14:44:23.077Z,34.01
2022-08-16T14:47:12.014Z,34.58
2022-08-16T14:50:02.045Z,34.51
2022-08-16T14:52:56.246Z,34.60
2022-08-16T14:55:45.156Z,33.98
2022-08-16T14:58:36.766Z,33.51
2022-08-16T15:01:58.134Z,33.41
2022-08-16T15:04:40.105Z,33.45
2022-08-16T15:07:35.010Z,33.52
2022-08-16T15:10:29.185Z,33.65
2022-08-16T15:13:18.387Z,33.40
2022-08-16T15:16:08.459Z,33.66
2022-08-16T15:18:59.093Z,33.63
2022-08-16T15:21:53.702Z,33.78
2022-08-16T15:24:44.298Z,33.73
2022-08-16T15:27:36.265Z,33.87
2022-08-16T15:30:57.874Z,33.77
2022-08-16T15:33:42.590Z,34.00
2022-08-16T15:36:33.164Z,34.10
2022-08-16T15:39:30.526Z,34.05
2022-08-16T15:42:29.665Z,33.97
2022-08-16T15:45:38.903Z,33.99
2022-08-16T15:48:32.692Z,33.93
2022-08-16T15:51:21.276Z,33.83
2022-08-16T15:54:29.057Z,34.40
2022-08-16T15:57:19.172Z,33.79
2022-08-16T16:00:14.912Z,33.63
2022-08-16T16:03:08.769Z,33.72
2022-08-16T16:06:00.099Z,33.92
2022-08-16T16:08:50.025Z,34.87
2022-08-16T16:11:40.877Z,34.60
2022-08-16T16:14:29.938Z,34.85
2022-08-16T16:17:21.131Z,34.45
2022-08-16T16:20:14.494Z,34.39
2022-08-16T16:23:10.372Z,34.81
2022-08-16T16:25:59.909Z,35.30
2022-08-16T16:29:08.229Z,34.68
2022-08-16T16:32:05.710Z,34.88
2022-08-16T16:34:57.766Z,34.97
2022-08-16T16:37:46.436Z,35.48
2022-08-16T16:40:46.171Z,35.46
2022-08-16T16:43:44.371Z,35.58
2022-08-16T16:46:41.326Z,35.79
2022-08-16T16:49:32.917Z,35.57
2022-08-16T16:52:43.422Z,36.00
2022-08-16T16:55:34.277Z,35.86
2022-08-16T16:58:54.033Z,35.58
2022-08-16T17:01:59.259Z,35.50
2022-08-16T17:04:53.240Z,35.94
2022-08-16T17:07:43.177Z,35.83
2022-08-16T17:13:40.489Z,36.21
2022-08-16T17:16:32.903Z,35.88
2022-08-16T17:19:23.833Z,36.59
2022-08-16T17:22:15.455Z,35.94
2022-08-16T17:25:07.792Z,36.47
2022-08-16T17:27:56.682Z,36.47
2022-08-16T17:30:47.333Z,36.35
2022-08-16T17:33:36.893Z,36.30
2022-08-16T17:36:36.015Z,36.52
2022-08-16T17:39:25.337Z,35.97
2022-08-16T17:39:26.048Z,35.72
2022-08-16T17:42:19.787Z,35.77
2022-08-16T17:45:11.161Z,36.07
2022-08-16T17:47:59.937Z,36.30
2022-08-16T17:50:49.865Z,36.58
2022-08-16T17:53:48.443Z,36.37
2022-08-16T17:56:38.942Z,37.40
2022-08-16T17:59:29.271Z,37.27
2022-08-16T18:02:43.924Z,37.33
2022-08-16T18:05:28.405Z,37.44
2022-08-16T18:08:17.361Z,37.94
2022-08-16T18:11:06.212Z,38.22
2022-08-16T18:13:56.515Z,39.35
2022-08-16T18:16:47.981Z,39.69
2022-08-16T18:19:37.007Z,40.28
2022-08-16T18:22:30.172Z,40.84
2022-08-16T18:25:20.705Z,42.65
2022-08-16T18:28:09.283Z,43.55
2022-08-16T18:31:01.131Z,44.54
2022-08-16T18:33:55.990Z,45.08
2022-08-16T18:36:44.807Z,44.10
2022-08-16T18:39:35.267Z,43.95
2022-08-16T18:42:23.887Z,44.64
2022-08-16T18:45:13.042Z,46.18
2022-08-16T18:48:01.684Z,46.90
2022-08-16T18:50:58.813Z,47.82
2022-08-16T18:53:53.625Z,48.91
2022-08-16T18:56:56.499Z,48.70
2022-08-16T18:59:46.229Z,49.04
2022-08-16T19:02:56.098Z,49.89
2022-08-16T19:05:45.163Z,49.84
2022-08-16T19:08:35.816Z,49.71
2022-08-16T19:11:25.895Z,50.42
2022-08-16T19:14:14.635Z,50.69
2022-08-16T19:17:03.192Z,51.03
2022-08-16T19:19:51.774Z,51.60
2022-08-16T19:25:54.484Z,52.28
2022-08-16T19:28:58.159Z,52.42
2022-08-16T19:31:47.754Z,52.73
2022-08-16T19:34:36.280Z,52.91
2022-08-16T19:37:25.256Z,53.59
2022-08-16T19:40:37.784Z,54.34
2022-08-16T19:43:24.649Z,54.13
2022-08-16T19:46:13.197Z,54.21
2022-08-16T19:49:01.763Z,54.54
2022-08-16T19:51:51.543Z,54.53
2022-08-16T19:54:41.222Z,54.59
2022-08-16T19:57:30.385Z,55.04
2022-08-16T20:00:20.280Z,55.54
2022-08-16T20:03:12.353Z,56.48
2022-08-16T20:06:01.009Z,56.90
2022-08-16T20:08:49.574Z,56.83
2022-08-16T20:11:38.145Z,56.64
2022-08-16T20:14:26.828Z,56.91
2022-08-16T20:17:17.279Z,56.78
2022-08-16T20:20:07.222Z,57.36
2022-08-16T20:22:59.795Z,57.93
2022-08-16T20:25:49.838Z,58.21
2022-08-16T20:28:52.893Z,58.41
2022-08-16T20:31:44.222Z,59.08
2022-08-16T20:34:34.703Z,59.49
2022-08-16T20:37:23.479Z,59.56
2022-08-16T20:40:28.069Z,59.63
2022-08-16T20:43:23.583Z,59.58
2022-08-16T20:46:12.263Z,59.93
2022-08-16T20:49:00.808Z,60.22
2022-08-16T20:51:55.945Z,61.13
2022-08-16T20:54:46.628Z,61.45
2022-08-16T20:57:37.809Z,61.65
2022-08-16T21:00:26.461Z,61.96
2022-08-16T21:03:15.072Z,62.04
2022-08-16T21:06:03.675Z,62.28
2022-08-16T21:08:54.354Z,62.55
2022-08-16T21:11:43.064Z,62.14
2022-08-16T21:17:22.693Z,62.41
2022-08-16T21:20:12.553Z,62.49
2022-08-16T21:23:05.120Z,62.87
2022-08-16T21:25:59.329Z,63.29
2022-08-16T21:28:48.410Z,63.14
2022-08-16T21:31:37.338Z,63.87
2022-08-16T21:34:25.960Z,64.49
2022-08-16T21:37:15.541Z,65.07
2022-08-16T21:40:05.722Z,65.25
2022-08-16T21:42:55.849Z,65.72
2022-08-16T21:45:45.917Z,65.52
2022-08-16T21:48:35.774Z,65.85
2022-08-16T21:51:24.816Z,65.77
2022-08-16T21:54:13.357Z,65.74
2022-08-16T21:57:01.978Z,65.92
2022-08-16T21:59:52.719Z,65.49
2022-08-16T22:02:42.115Z,65.63
2022-08-16T22:05:31.458Z,65.75
2022-08-16T22:08:21.045Z,65.35
2022-08-16T22:11:09.753Z,65.39
2022-08-16T22:13:59.423Z,65.41
2022-08-16T22:16:49.468Z,65.30
2022-08-16T22:19:38.306Z,65.34
2022-08-16T22:22:35.994Z,65.55
2022-08-16T22:25:24.790Z,65.48
2022-08-16T22:28:14.267Z,66.03
2022-08-16T22:31:03.034Z,66.08
2022-08-16T22:33:56.473Z,66.05
2022-08-16T22:36:45.522Z,66.33
2022-08-16T22:39:34.119Z,66.55
2022-08-16T22:42:23.065Z,66.71
2022-08-16T22:45:13.145Z,66.63
2022-08-16T22:48:02.484Z,66.31
2022-08-16T22:50:52.916Z,66.59
2022-08-16T22:53:41.462Z,66.77
2022-08-16T22:56:30.105Z,66.98
2022-08-16T22:59:18.681Z,67.41
2022-08-16T23:02:09.776Z,67.95
2022-08-16T23:04:58.290Z,67.98
2022-08-16T23:07:49.036Z,68.86
2022-08-16T23:10:37.899Z,69.72
2022-08-16T23:13:27.858Z,70.00
2022-08-16T23:16:16.981Z,70.39
2022-08-16T23:19:07.285Z,70.26
2022-08-16T23:21:55.893Z,70.23
2022-08-16T23:24:46.657Z,70.35
2022-08-16T23:27:45.591Z,70.53
2022-08-16T23:30:36.702Z,70.42
2022-08-16T23:33:29.831Z,70.44
2022-08-16T23:36:18.381Z,70.20
2022-08-16T23:39:07.257Z,70.91
2022-08-16T23:41:57.192Z,71.40
2022-08-16T23:44:58.419Z,72.06
2022-08-16T23:47:48.082Z,72.30
2022-08-16T23:50:37.984Z,72.22
2022-08-16T23:53:28.164Z,71.72
2022-08-16T23:56:18.352Z,71.87
2022-08-16T23:59:08.189Z,71.82
